createdAt,value
2018-12-19T00:02:03.539Z,81.90
2018-12-19T00:04:31.257Z,81.30
2018-12-19T00:06:58.831Z,81.40
2018-12-19T00:09:27.139Z,81.00
2018-12-19T00:11:54.671Z,80.70
2018-12-19T00:14:22.195Z,80.40
2018-12-19T00:16:49.763Z,80.60
2018-12-19T00:19:17.277Z,80.40
2018-12-19T00:21:44.883Z,80.10
2018-12-19T00:24:12.428Z,80.00
2018-12-19T00:26:39.996Z,80.20
2018-12-19T00:29:07.505Z,80.20
2018-12-19T00:31:35.037Z,80.40
2018-12-19T00:34:02.592Z,80.30
2018-12-19T00:36:30.095Z,80.50
2018-12-19T00:38:57.533Z,80.50
2018-12-19T00:41:25.017Z,80.50
2018-12-19T00:43:52.511Z,80.50
2018-12-19T00:46:19.899Z,80.60
2018-12-19T00:48:47.425Z,80.70
2018-12-19T00:51:14.890Z,80.80
2018-12-19T00:53:42.365Z,80.90
2018-12-19T00:56:09.848Z,80.90
2018-12-19T00:58:37.385Z,81.10
2018-12-19T01:01:04.907Z,81.10
2018-12-19T01:03:32.287Z,81.10
2018-12-19T01:05:59.819Z,81.20
2018-12-19T01:08:27.319Z,81.20
2018-12-19T01:10:54.797Z,81.00
2018-12-19T01:13:22.345Z,81.20
2018-12-19T01:15:49.817Z,81.30
2018-12-19T01:18:17.299Z,81.10
2018-12-19T01:20:44.837Z,81.00
2018-12-19T01:23:12.999Z,81.20
2018-12-19T01:25:40.493Z,81.10
2018-12-19T01:28:07.930Z,81.10
2018-12-19T01:30:35.454Z,81.10
2018-12-19T01:33:02.846Z,80.90
2018-12-19T01:35:30.355Z,80.80
2018-12-19T01:37:57.845Z,80.90
2018-12-19T01:40:25.349Z,80.90
2018-12-19T01:42:52.897Z,80.90
2018-12-19T01:45:20.397Z,80.80
2018-12-19T01:47:48.021Z,80.70
2018-12-19T01:50:15.520Z,80.70
2018-12-19T01:52:43.037Z,80.70
2018-12-19T01:55:10.520Z,80.60
2018-12-19T01:57:38.011Z,80.70
2018-12-19T02:00:05.856Z,80.50
2018-12-19T02:02:33.975Z,80.60
2018-12-19T02:05:01.377Z,80.40
2018-12-19T02:07:28.859Z,80.40
2018-12-19T02:09:56.363Z,80.20
2018-12-19T02:12:23.765Z,80.20
2018-12-19T02:14:51.271Z,80.10
2018-12-19T02:17:18.727Z,80.10
2018-12-19T02:19:46.091Z,80.10
2018-12-19T02:22:13.606Z,80.30
2018-12-19T02:24:41.217Z,80.30
2018-12-19T02:27:08.693Z,80.40
2018-12-19T02:29:36.195Z,80.40
2018-12-19T02:32:07.963Z,80.40
2018-12-19T02:34:35.789Z,80.40
2018-12-19T02:37:03.297Z,80.20
2018-12-19T02:39:36.131Z,80.40
2018-12-19T02:42:00.324Z,80.50
2018-12-19T02:44:27.851Z,80.60
2018-12-19T02:46:55.410Z,80.70
2018-12-19T02:49:22.961Z,80.70
2018-12-19T02:51:50.456Z,80.70
2018-12-19T02:54:17.975Z,80.90
2018-12-19T02:56:45.476Z,80.70
2018-12-19T02:59:14.640Z,80.90
2018-12-19T03:01:42.119Z,80.80
2018-12-19T03:04:09.650Z,80.90
2018-12-19T03:06:37.164Z,81.00
2018-12-19T03:09:07.508Z,81.00
2018-12-19T03:11:34.980Z,81.10
2018-12-19T03:14:02.669Z,81.00
2018-12-19T03:16:30.280Z,81.10
2018-12-19T03:18:57.823Z,81.00
2018-12-19T03:21:25.304Z,81.00
2018-12-19T03:23:53.471Z,80.90
2018-12-19T03:26:20.972Z,80.90
2018-12-19T03:28:48.481Z,80.90
2018-12-19T03:31:16.014Z,80.80
2018-12-19T03:33:44.871Z,81.60
2018-12-19T03:36:12.496Z,80.90
2018-12-19T03:38:39.877Z,80.80
2018-12-19T03:41:07.529Z,80.70
2018-12-19T03:43:35.022Z,80.90
2018-12-19T03:46:02.420Z,80.70
2018-12-19T03:48:35.580Z,80.70
2018-12-19T03:51:03.184Z,80.60
2018-12-19T03:53:30.641Z,80.60
2018-12-19T03:55:58.240Z,80.70
2018-12-19T03:58:25.800Z,80.60
2018-12-19T04:00:53.321Z,80.50
2018-12-19T04:03:20.804Z,80.40
2018-12-19T04:05:48.260Z,80.30
2018-12-19T04:08:15.771Z,80.40
2018-12-19T04:10:43.508Z,80.90
2018-12-19T04:13:10.905Z,81.80
2018-12-19T04:15:38.395Z,82.70
2018-12-19T04:18:05.903Z,83.30
2018-12-19T04:20:33.399Z,84.00
2018-12-19T04:23:00.900Z,84.60
2018-12-19T04:25:28.403Z,85.20
2018-12-19T04:27:58.963Z,85.50
2018-12-19T04:30:26.839Z,86.00
2018-12-19T04:32:54.427Z,86.30
2018-12-19T04:35:22.063Z,86.60
2018-12-19T04:37:50.441Z,86.90
2018-12-19T04:40:17.939Z,87.30
2018-12-19T04:42:45.419Z,87.30
2018-12-19T04:45:12.915Z,87.40
2018-12-19T04:47:40.419Z,87.50
2018-12-19T04:50:07.948Z,87.70
2018-12-19T04:52:35.484Z,87.80
2018-12-19T04:55:03.563Z,87.80
2018-12-19T04:57:31.075Z,87.90
2018-12-19T04:59:58.569Z,88.00
2018-12-19T05:02:26.180Z,88.20
2018-12-19T05:04:53.753Z,88.10
2018-12-19T05:07:21.968Z,87.90
2018-12-19T05:09:49.439Z,87.90
2018-12-19T05:12:16.943Z,88.00
2018-12-19T05:14:44.479Z,87.90
2018-12-19T05:17:11.911Z,88.00
2018-12-19T05:19:39.556Z,88.00
2018-12-19T05:22:07.079Z,88.00
2018-12-19T05:24:34.804Z,88.00
2018-12-19T05:27:02.269Z,88.00
2018-12-19T05:29:29.744Z,88.10
2018-12-19T05:31:57.131Z,88.10
2018-12-19T05:34:24.606Z,88.20
2018-12-19T05:36:52.128Z,88.30
2018-12-19T05:39:19.715Z,88.30
2018-12-19T05:41:47.224Z,88.40
2018-12-19T05:44:14.754Z,88.50
2018-12-19T05:46:42.232Z,88.40
2018-12-19T05:49:09.856Z,88.50
2018-12-19T05:51:37.364Z,88.60
2018-12-19T05:54:04.859Z,88.70
2018-12-19T05:56:32.377Z,88.80
2018-12-19T05:58:59.945Z,89.60
2018-12-19T06:01:27.455Z,89.10
2018-12-19T06:03:55.101Z,89.20
2018-12-19T06:06:22.501Z,89.20
2018-12-19T06:08:49.983Z,89.40
2018-12-19T06:11:17.501Z,89.40
2018-12-19T06:13:45.006Z,89.40
2018-12-19T06:16:12.489Z,89.30
2018-12-19T06:18:39.979Z,89.50
2018-12-19T06:21:07.509Z,89.00
2018-12-19T06:23:35.024Z,89.60
2018-12-19T06:26:02.597Z,89.80
2018-12-19T06:28:30.077Z,90.00
2018-12-19T06:30:57.584Z,90.00
2018-12-19T06:33:25.108Z,90.10
2018-12-19T06:35:52.676Z,90.10
2018-12-19T06:38:20.334Z,90.20
2018-12-19T06:40:47.829Z,90.20
2018-12-19T06:43:15.340Z,90.20
2018-12-19T06:45:42.990Z,90.30
2018-12-19T06:48:10.508Z,90.40
2018-12-19T06:50:38.022Z,90.40
2018-12-19T06:53:05.494Z,90.40
2018-12-19T06:55:33.061Z,90.50
2018-12-19T06:58:00.544Z,90.60
2018-12-19T07:00:32.260Z,90.70
2018-12-19T07:02:59.772Z,90.80
2018-12-19T07:05:27.243Z,90.90
2018-12-19T07:07:55.688Z,90.90
2018-12-19T07:10:23.156Z,90.90
2018-12-19T07:12:50.620Z,90.80
2018-12-19T07:15:18.731Z,90.80
2018-12-19T07:17:46.671Z,90.80
2018-12-19T07:20:14.135Z,90.70
2018-12-19T07:22:41.659Z,90.60
2018-12-19T07:25:09.129Z,90.40
2018-12-19T07:27:36.635Z,90.20
2018-12-19T07:30:05.081Z,90.20
2018-12-19T07:32:32.611Z,89.60
2018-12-19T07:35:00.144Z,90.10
2018-12-19T07:37:27.817Z,90.00
2018-12-19T07:39:56.356Z,90.00
2018-12-19T07:42:24.163Z,90.00
2018-12-19T07:44:51.658Z,90.10
2018-12-19T07:47:19.098Z,90.00
2018-12-19T07:49:46.559Z,90.10
2018-12-19T07:52:14.052Z,90.10
2018-12-19T07:54:41.566Z,90.20
2018-12-19T07:57:09.037Z,90.20
2018-12-19T07:59:36.549Z,90.20
2018-12-19T08:02:04.306Z,90.30
2018-12-19T08:04:32.224Z,90.40
2018-12-19T08:06:59.707Z,90.40
2018-12-19T08:09:28.960Z,90.40
2018-12-19T08:11:56.441Z,90.50
2018-12-19T08:14:23.876Z,90.50
2018-12-19T08:16:52.050Z,90.60
2018-12-19T08:19:19.522Z,90.60
2018-12-19T08:21:47.032Z,90.80
2018-12-19T08:24:14.487Z,90.80
2018-12-19T08:26:41.954Z,90.80
2018-12-19T08:29:09.432Z,90.80
2018-12-19T08:31:37.020Z,90.90
2018-12-19T08:34:04.732Z,90.90
2018-12-19T08:36:32.182Z,90.90
2018-12-19T08:38:59.638Z,90.90
2018-12-19T08:41:27.099Z,90.90
2018-12-19T08:43:54.486Z,90.90
2018-12-19T08:46:22.044Z,90.90
2018-12-19T08:48:49.653Z,91.00
2018-12-19T08:51:17.100Z,90.90
2018-12-19T08:53:44.647Z,90.90
2018-12-19T08:56:12.210Z,90.90
2018-12-19T08:58:39.663Z,90.70
2018-12-19T09:01:07.099Z,90.30
2018-12-19T09:03:34.573Z,90.10
2018-12-19T09:06:01.929Z,89.70
2018-12-19T09:08:29.383Z,89.40
2018-12-19T09:10:57.777Z,89.00
2018-12-19T09:13:26.222Z,88.60
2018-12-19T09:15:53.879Z,88.10
2018-12-19T09:18:21.368Z,87.60
2018-12-19T09:20:48.799Z,86.90
2018-12-19T09:23:16.250Z,86.00
2018-12-19T09:25:44.460Z,84.40
2018-12-19T09:28:11.921Z,83.90
2018-12-19T09:30:39.472Z,83.70
2018-12-19T09:33:06.896Z,83.70
2018-12-19T09:35:35.098Z,84.30
2018-12-19T09:38:03.883Z,84.70
2018-12-19T09:40:31.344Z,85.10
2018-12-19T09:42:58.814Z,85.50
2018-12-19T09:45:26.275Z,86.00
2018-12-19T09:47:53.839Z,86.10
2018-12-19T09:50:21.309Z,86.30
2018-12-19T09:52:48.836Z,86.30
2018-12-19T09:55:16.299Z,86.20
2018-12-19T09:57:43.809Z,85.90
2018-12-19T10:00:17.324Z,85.60
2018-12-19T10:02:44.795Z,85.40
2018-12-19T10:05:12.404Z,85.10
2018-12-19T10:07:39.877Z,84.70
2018-12-19T10:10:07.418Z,80.20
2018-12-19T10:12:34.870Z,74.80
2018-12-19T10:15:02.469Z,68.90
2018-12-19T10:17:30.177Z,61.70
2018-12-19T10:19:57.706Z,57.50
2018-12-19T10:22:31.236Z,54.50
2018-12-19T10:25:04.926Z,52.10
2018-12-19T10:27:33.213Z,50.10
2018-12-19T10:30:00.699Z,51.30
2018-12-19T10:32:32.773Z,50.80
2018-12-19T10:35:00.216Z,49.30
2018-12-19T10:37:27.664Z,48.50
2018-12-19T10:39:55.324Z,48.80
2018-12-19T10:42:22.796Z,48.10
2018-12-19T10:44:50.228Z,47.50
2018-12-19T10:47:17.815Z,46.50
2018-12-19T10:49:45.396Z,45.50
2018-12-19T10:52:12.883Z,46.10
2018-12-19T10:54:40.357Z,46.80
2018-12-19T10:57:07.810Z,47.10
2018-12-19T10:59:35.365Z,47.40
2018-12-19T11:02:03.045Z,47.30
2018-12-19T11:04:30.532Z,47.70
2018-12-19T11:06:58.004Z,47.60
2018-12-19T11:09:25.976Z,47.30
2018-12-19T11:11:53.475Z,47.40
2018-12-19T11:14:20.919Z,48.60
2018-12-19T11:16:48.507Z,47.40
2018-12-19T11:19:15.951Z,47.30
2018-12-19T11:21:43.579Z,47.20
2018-12-19T11:24:11.096Z,46.40
2018-12-19T11:26:38.820Z,46.30
2018-12-19T11:29:06.533Z,45.30
2018-12-19T11:31:33.995Z,44.70
2018-12-19T11:34:01.424Z,44.40
2018-12-19T11:36:28.878Z,45.50
2018-12-19T11:38:56.321Z,47.50
2018-12-19T11:41:23.796Z,49.60
2018-12-19T11:43:51.345Z,50.90
2018-12-19T11:46:18.828Z,52.00
2018-12-19T11:48:46.325Z,53.00
2018-12-19T11:51:13.813Z,54.60
2018-12-19T11:53:41.435Z,55.70
2018-12-19T11:56:08.903Z,56.70
2018-12-19T11:58:37.395Z,58.60
2018-12-19T12:01:04.860Z,60.20
2018-12-19T12:03:32.326Z,61.80
2018-12-19T12:05:59.767Z,63.40
2018-12-19T12:08:27.243Z,64.30
2018-12-19T12:10:54.701Z,65.10
2018-12-19T12:13:22.139Z,65.80
2018-12-19T12:15:49.593Z,66.20
2018-12-19T12:18:17.067Z,67.10
2018-12-19T12:20:44.532Z,67.70
2018-12-19T12:23:12.023Z,67.90
2018-12-19T12:25:39.637Z,68.10
2018-12-19T12:28:07.117Z,68.40
2018-12-19T12:30:34.602Z,68.50
2018-12-19T12:33:02.103Z,68.60
2018-12-19T12:35:29.472Z,68.50
2018-12-19T12:37:56.836Z,68.40
2018-12-19T12:40:24.207Z,69.20
2018-12-19T12:42:51.703Z,68.40
2018-12-19T12:45:19.121Z,68.00
2018-12-19T12:47:46.451Z,67.50
2018-12-19T12:50:13.851Z,67.50
2018-12-19T12:52:41.211Z,67.70
2018-12-19T12:55:08.635Z,67.80
2018-12-19T12:57:36.091Z,68.10
2018-12-19T13:00:06.154Z,67.50
2018-12-19T13:02:33.637Z,67.70
2018-12-19T13:05:01.117Z,68.30
2018-12-19T13:07:29.183Z,68.50
2018-12-19T13:09:56.637Z,69.00
2018-12-19T13:12:24.201Z,69.20
2018-12-19T13:14:51.731Z,69.40
2018-12-19T13:17:19.228Z,70.60
2018-12-19T13:19:46.715Z,70.20
2018-12-19T13:22:14.218Z,70.50
2018-12-19T13:24:41.683Z,70.70
2018-12-19T13:27:09.133Z,70.80
2018-12-19T13:29:36.588Z,71.00
2018-12-19T13:32:04.083Z,71.20
2018-12-19T13:34:31.581Z,71.80
2018-12-19T13:36:58.984Z,72.10
2018-12-19T13:39:26.449Z,72.40
2018-12-19T13:41:54.120Z,73.00
2018-12-19T13:44:21.658Z,73.50
2018-12-19T13:46:49.232Z,74.00
2018-12-19T13:49:17.032Z,74.30
2018-12-19T13:51:44.540Z,74.50
2018-12-19T13:54:11.994Z,74.60
2018-12-19T13:56:39.640Z,74.80
2018-12-19T13:59:08.143Z,74.80
2018-12-19T14:01:36.647Z,74.80
2018-12-19T14:04:04.135Z,74.90
2018-12-19T14:06:31.673Z,75.00
2018-12-19T14:08:59.173Z,75.00
2018-12-19T14:11:26.681Z,74.90
2018-12-19T14:13:54.158Z,74.80
2018-12-19T14:16:21.668Z,74.80
2018-12-19T14:18:49.149Z,75.00
2018-12-19T14:21:16.625Z,75.10
2018-12-19T14:23:44.174Z,75.10
2018-12-19T14:26:11.794Z,75.10
2018-12-19T14:28:39.269Z,75.20
2018-12-19T14:31:06.773Z,75.10
2018-12-19T14:33:34.263Z,75.10
2018-12-19T14:36:02.401Z,75.30
2018-12-19T14:38:29.895Z,75.30
2018-12-19T14:40:58.251Z,74.80
2018-12-19T14:43:25.743Z,75.40
2018-12-19T14:45:53.203Z,75.60
2018-12-19T14:48:20.693Z,75.50
2018-12-19T14:50:48.194Z,75.50
2018-12-19T14:53:15.699Z,75.30
2018-12-19T14:55:43.139Z,75.30
2018-12-19T14:58:10.631Z,75.30
2018-12-19T15:00:38.194Z,75.20
2018-12-19T15:03:06.352Z,75.30
2018-12-19T15:05:33.940Z,75.30
2018-12-19T15:08:01.525Z,75.40
2018-12-19T15:10:29.016Z,76.20
2018-12-19T15:12:56.546Z,75.40
2018-12-19T15:15:24.026Z,75.50
2018-12-19T15:17:51.509Z,75.50
2018-12-19T15:20:19.237Z,75.70
2018-12-19T15:22:46.681Z,75.70
2018-12-19T15:25:14.238Z,75.60
2018-12-19T15:27:41.720Z,75.40
2018-12-19T15:30:09.100Z,75.30
2018-12-19T15:32:37.892Z,75.20
2018-12-19T15:35:05.778Z,75.20
2018-12-19T15:37:33.181Z,75.30
2018-12-19T15:40:00.719Z,75.50
2018-12-19T15:42:32.518Z,75.60
2018-12-19T15:44:59.272Z,75.80
2018-12-19T15:47:27.252Z,75.90
2018-12-19T15:49:54.973Z,76.20
2018-12-19T15:52:22.382Z,76.30
2018-12-19T15:54:49.804Z,76.40
2018-12-19T15:57:24.184Z,77.40
2018-12-19T15:59:51.632Z,76.60
2018-12-19T16:02:19.129Z,76.60
2018-12-19T16:04:46.780Z,76.70
2018-12-19T16:07:14.374Z,76.80
2018-12-19T16:09:41.782Z,76.90
2018-12-19T16:12:09.323Z,77.10
2018-12-19T16:14:36.841Z,77.10
2018-12-19T16:17:04.229Z,77.20
2018-12-19T16:19:32.705Z,77.30
2018-12-19T16:22:01.304Z,76.80
2018-12-19T16:24:28.855Z,77.60
2018-12-19T16:26:56.379Z,77.60
2018-12-19T16:29:23.870Z,77.60
2018-12-19T16:31:51.326Z,77.70
2018-12-19T16:34:18.823Z,77.70
2018-12-19T16:36:46.334Z,77.80
2018-12-19T16:39:13.890Z,77.80
2018-12-19T16:41:41.372Z,77.60
2018-12-19T16:44:08.904Z,78.00
2018-12-19T16:46:36.484Z,78.10
2018-12-19T16:49:04.140Z,78.20
2018-12-19T16:51:31.635Z,78.40
2018-12-19T16:53:59.240Z,78.70
2018-12-19T16:56:26.770Z,78.70
2018-12-19T16:58:54.328Z,78.90
2018-12-19T17:01:21.996Z,79.00
2018-12-19T17:03:49.444Z,79.10
2018-12-19T17:06:17.324Z,79.20
2018-12-19T17:08:44.886Z,79.30
2018-12-19T17:11:12.361Z,79.50
2018-12-19T17:13:39.884Z,80.20
2018-12-19T17:16:07.393Z,81.00
2018-12-19T17:18:36.430Z,81.70
2018-12-19T17:21:05.365Z,82.60
2018-12-19T17:23:32.825Z,82.70
2018-12-19T17:26:00.573Z,83.20
2018-12-19T17:28:28.126Z,83.90
2018-12-19T17:30:55.552Z,83.80
2018-12-19T17:33:23.222Z,84.30
2018-12-19T17:35:50.750Z,84.60
2018-12-19T17:38:18.175Z,84.70
2018-12-19T17:40:45.641Z,84.90
2018-12-19T17:43:13.177Z,85.10
2018-12-19T17:45:40.697Z,85.20
2018-12-19T17:48:08.565Z,85.40
2018-12-19T17:50:36.187Z,85.50
2018-12-19T17:53:03.636Z,85.70
2018-12-19T17:55:31.287Z,85.90
2018-12-19T17:57:58.869Z,86.00
2018-12-19T18:00:26.535Z,86.00
2018-12-19T18:02:53.961Z,86.10
2018-12-19T18:05:21.560Z,85.50
2018-12-19T18:07:49.099Z,85.90
2018-12-19T18:10:16.700Z,85.70
2018-12-19T18:12:44.187Z,85.60
2018-12-19T18:15:11.781Z,85.50
2018-12-19T18:17:39.377Z,85.30
2018-12-19T18:20:07.213Z,85.30
2018-12-19T18:22:34.616Z,85.10
2018-12-19T18:25:02.208Z,85.10
2018-12-19T18:27:29.759Z,85.00
2018-12-19T18:29:57.282Z,85.00
2018-12-19T18:32:24.838Z,85.00
2018-12-19T18:34:52.388Z,85.20
2018-12-19T18:37:19.914Z,85.20
2018-12-19T18:39:47.540Z,85.30
2018-12-19T18:42:15.095Z,85.80
2018-12-19T18:44:42.583Z,85.50
2018-12-19T18:47:10.519Z,85.50
2018-12-19T18:49:38.042Z,85.60
2018-12-19T18:52:05.827Z,85.60
2018-12-19T18:54:33.261Z,85.60
2018-12-19T18:57:00.794Z,85.50
2018-12-19T18:59:28.312Z,86.10
2018-12-19T19:01:55.811Z,85.90
2018-12-19T19:04:23.406Z,86.00
2018-12-19T19:06:50.958Z,86.30
2018-12-19T19:09:18.653Z,86.40
2018-12-19T19:11:46.182Z,86.70
2018-12-19T19:14:14.339Z,86.70
2018-12-19T19:16:41.884Z,86.80
2018-12-19T19:19:09.440Z,87.00
2018-12-19T19:21:37.016Z,87.00
2018-12-19T19:24:04.606Z,87.10
2018-12-19T19:26:32.360Z,86.60
2018-12-19T19:28:59.972Z,87.40
2018-12-19T19:31:27.542Z,87.50
2018-12-19T19:33:55.098Z,87.70
2018-12-19T19:36:22.636Z,87.80
2018-12-19T19:38:50.152Z,87.80
2018-12-19T19:41:17.593Z,88.00
2018-12-19T19:43:46.103Z,88.00
2018-12-19T19:46:13.977Z,88.20
2018-12-19T19:48:41.504Z,88.30
2018-12-19T19:51:09.025Z,88.30
2018-12-19T19:53:36.622Z,88.40
2018-12-19T19:56:04.295Z,88.50
2018-12-19T19:58:31.784Z,88.80
2018-12-19T20:00:59.387Z,89.00
2018-12-19T20:03:27.016Z,89.10
2018-12-19T20:05:54.504Z,89.20
2018-12-19T20:08:22.098Z,89.10
2018-12-19T20:10:49.683Z,89.30
2018-12-19T20:13:17.179Z,89.40
2018-12-19T20:15:44.881Z,89.40
2018-12-19T20:18:13.753Z,89.60
2018-12-19T20:20:41.494Z,89.70
2018-12-19T20:23:09.070Z,89.90
2018-12-19T20:25:36.627Z,89.90
2018-12-19T20:28:04.268Z,90.00
2018-12-19T20:30:31.840Z,90.10
2018-12-19T20:32:59.416Z,90.30
2018-12-19T20:35:26.939Z,90.40
2018-12-19T20:37:54.442Z,90.50
2018-12-19T20:40:22.072Z,90.60
2018-12-19T20:42:49.626Z,90.40
2018-12-19T20:45:17.044Z,90.70
2018-12-19T20:47:44.612Z,90.80
2018-12-19T20:50:12.710Z,90.70
2018-12-19T20:52:40.265Z,90.80
2018-12-19T20:55:07.809Z,90.80
2018-12-19T20:57:35.435Z,90.90
2018-12-19T21:00:04.145Z,91.00
2018-12-19T21:02:31.732Z,91.10
2018-12-19T21:05:00.077Z,91.60
2018-12-19T21:07:27.537Z,91.30
2018-12-19T21:09:55.055Z,91.30
2018-12-19T21:12:22.594Z,91.30
2018-12-19T21:14:50.100Z,91.50
2018-12-19T21:17:23.440Z,91.60
2018-12-19T21:19:50.972Z,91.70
2018-12-19T21:22:18.540Z,91.80
2018-12-19T21:24:45.946Z,91.90
2018-12-19T21:27:13.597Z,92.00
2018-12-19T21:29:41.584Z,92.10
2018-12-19T21:32:09.060Z,92.10
2018-12-19T21:34:36.608Z,92.20
2018-12-19T21:37:04.107Z,92.30
2018-12-19T21:39:31.663Z,92.30
2018-12-19T21:41:59.265Z,92.60
2018-12-19T21:44:26.804Z,92.30
2018-12-19T21:46:54.245Z,92.30
2018-12-19T21:49:21.995Z,92.40
2018-12-19T21:51:49.666Z,92.40
2018-12-19T21:54:17.275Z,92.40
2018-12-19T21:56:44.814Z,92.50
2018-12-19T21:59:12.458Z,92.50
2018-12-19T22:01:40.080Z,92.50
2018-12-19T22:04:07.646Z,92.50
2018-12-19T22:06:35.216Z,92.60
2018-12-19T22:09:05.398Z,92.60
2018-12-19T22:11:33.050Z,92.60
2018-12-19T22:14:00.950Z,92.50
2018-12-19T22:16:34.373Z,92.60
2018-12-19T22:19:01.904Z,92.70
2018-12-19T22:21:29.457Z,92.70
2018-12-19T22:23:56.992Z,92.80
2018-12-19T22:26:24.529Z,92.80
2018-12-19T22:28:52.192Z,92.80
2018-12-19T22:31:19.663Z,92.80
2018-12-19T22:33:47.321Z,92.80
2018-12-19T22:36:14.954Z,92.80
2018-12-19T22:38:42.608Z,92.90
2018-12-19T22:41:10.515Z,92.90
2018-12-19T22:43:37.947Z,92.90
2018-12-19T22:46:05.550Z,93.00
2018-12-19T22:48:33.103Z,93.00
2018-12-19T22:51:00.627Z,93.00
2018-12-19T22:53:28.144Z,93.10
2018-12-19T22:55:55.867Z,93.00
2018-12-19T22:58:23.476Z,93.00
2018-12-19T23:00:57.018Z,93.00
2018-12-19T23:03:30.394Z,93.00
2018-12-19T23:05:57.879Z,93.00
2018-12-19T23:08:25.728Z,93.10
2018-12-19T23:10:53.542Z,93.10
2018-12-19T23:13:21.151Z,93.10
2018-12-19T23:15:48.921Z,93.10
2018-12-19T23:18:22.066Z,93.10
2018-12-19T23:20:50.167Z,93.20
2018-12-19T23:23:17.764Z,93.20
2018-12-19T23:25:45.403Z,93.20
2018-12-19T23:28:13.311Z,93.30
2018-12-19T23:30:41.092Z,93.30
2018-12-19T23:33:08.795Z,93.40
2018-12-19T23:35:36.455Z,93.40
2018-12-19T23:38:04.119Z,93.40
2018-12-19T23:40:31.639Z,93.40
2018-12-19T23:42:59.362Z,93.40
2018-12-19T23:45:26.971Z,93.40
2018-12-19T23:47:54.649Z,93.40
2018-12-19T23:50:22.212Z,93.30
2018-12-19T23:52:50.152Z,93.30
2018-12-19T23:55:17.766Z,93.30
2018-12-19T23:57:45.300Z,93.30
